createdAt,value
2023-01-04T00:00:29.373Z,67.88
2023-01-04T00:03:18.739Z,67.49
2023-01-04T00:05:48.497Z,67.51
2023-01-04T00:08:17.711Z,67.07
2023-01-04T00:10:48.691Z,67.20
2023-01-04T00:13:17.962Z,67.53
2023-01-04T00:15:47.491Z,67.21
2023-01-04T00:18:16.737Z,67.24
2023-01-04T00:20:46.330Z,67.09
2023-01-04T00:23:15.569Z,66.92
2023-01-04T00:25:45.087Z,66.89
2023-01-04T00:28:15.776Z,67.04
2023-01-04T00:30:45.337Z,67.01
2023-01-04T00:33:14.586Z,66.73
2023-01-04T00:35:46.188Z,66.61
2023-01-04T00:38:15.787Z,66.91
2023-01-04T00:40:45.335Z,67.15
2023-01-04T00:43:16.224Z,66.96
2023-01-04T00:45:45.886Z,66.98
2023-01-04T00:48:15.101Z,66.62
2023-01-04T00:50:45.019Z,66.63
2023-01-04T00:53:14.202Z,66.72
2023-01-04T00:55:43.950Z,66.26
2023-01-04T00:58:13.208Z,66.40
2023-01-04T01:00:44.211Z,66.59
2023-01-04T01:03:13.594Z,66.31
2023-01-04T01:05:43.293Z,66.06
2023-01-04T01:08:31.920Z,66.27
2023-01-04T01:11:04.103Z,66.27
2023-01-04T01:13:33.305Z,66.42
2023-01-04T01:16:08.227Z,65.87
2023-01-04T01:18:37.808Z,66.19
2023-01-04T01:21:10.816Z,66.17
2023-01-04T01:23:40.089Z,66.06
2023-01-04T01:26:10.518Z,66.14
2023-01-04T01:28:39.834Z,65.88
2023-01-04T01:31:11.286Z,66.09
2023-01-04T01:33:40.616Z,66.30
2023-01-04T01:36:18.612Z,66.27
2023-01-04T01:38:50.802Z,66.11
2023-01-04T01:41:21.163Z,65.69
2023-01-04T01:43:51.849Z,65.92
2023-01-04T01:46:23.706Z,66.22
2023-01-04T01:48:53.117Z,66.04
2023-01-04T01:51:22.690Z,66.18
2023-01-04T01:53:53.562Z,66.67
2023-01-04T01:56:23.119Z,66.71
2023-01-04T01:58:52.838Z,66.33
2023-01-04T02:01:23.940Z,66.24
2023-01-04T02:03:53.269Z,65.95
2023-01-04T02:06:24.342Z,65.73
2023-01-04T02:08:53.511Z,65.71
2023-01-04T02:11:23.067Z,65.85
2023-01-04T02:14:09.567Z,65.38
2023-01-04T02:16:46.309Z,65.94
2023-01-04T02:19:37.051Z,65.67
2023-01-04T02:22:13.338Z,65.65
2023-01-04T02:24:49.770Z,65.57
2023-01-04T02:27:26.237Z,65.49
2023-01-04T02:30:22.197Z,65.54
2023-01-04T02:32:55.346Z,65.56
2023-01-04T02:35:26.526Z,65.70
2023-01-04T02:37:57.906Z,65.73
2023-01-04T02:40:29.547Z,65.68
2023-01-04T02:43:16.588Z,65.54
2023-01-04T02:45:46.484Z,65.47
2023-01-04T02:48:34.568Z,65.52
2023-01-04T02:51:03.879Z,65.45
2023-01-04T02:53:34.712Z,65.30
2023-01-04T02:56:08.289Z,65.45
2023-01-04T02:58:42.169Z,65.59
2023-01-04T03:01:30.253Z,65.74
2023-01-04T03:04:20.290Z,65.69
2023-01-04T03:06:51.895Z,65.49
2023-01-04T03:09:21.850Z,65.16
2023-01-04T03:12:08.901Z,65.24
2023-01-04T03:14:39.498Z,65.08
2023-01-04T03:17:10.224Z,65.12
2023-01-04T03:19:55.172Z,65.44
2023-01-04T03:22:44.445Z,65.49
2023-01-04T03:25:31.791Z,65.42
2023-01-04T03:28:18.133Z,65.20
2023-01-04T03:31:07.597Z,64.99
2023-01-04T03:33:54.110Z,65.34
2023-01-04T03:36:29.087Z,65.38
2023-01-04T03:39:16.495Z,64.98
2023-01-04T03:42:03.398Z,65.21
2023-01-04T03:45:09.748Z,64.89
2023-01-04T03:47:58.894Z,65.24
2023-01-04T03:50:28.867Z,65.26
2023-01-04T03:53:00.233Z,65.12
2023-01-04T03:55:29.600Z,65.69
2023-01-04T03:57:59.121Z,65.49
2023-01-04T04:00:28.478Z,65.78
2023-01-04T04:03:07.387Z,66.14
2023-01-04T04:05:54.768Z,67.15
2023-01-04T04:08:29.112Z,67.02
2023-01-04T04:11:19.264Z,67.16
2023-01-04T04:13:48.802Z,66.88
2023-01-04T04:16:18.279Z,66.03
2023-01-04T04:18:48.228Z,66.10
2023-01-04T04:21:17.597Z,66.12
2023-01-04T04:23:48.600Z,66.21
2023-01-04T04:26:17.920Z,66.18
2023-01-04T04:28:47.486Z,65.94
2023-01-04T04:31:16.785Z,65.97
2023-01-04T04:33:46.398Z,65.53
2023-01-04T04:36:15.664Z,65.70
2023-01-04T04:38:45.282Z,65.57
2023-01-04T04:41:47.628Z,65.79
2023-01-04T04:44:17.537Z,66.29
2023-01-04T04:46:46.972Z,66.31
2023-01-04T04:49:16.759Z,66.48
2023-01-04T04:51:46.513Z,66.08
2023-01-04T04:54:17.391Z,66.07
2023-01-04T04:56:48.210Z,65.76
2023-01-04T04:59:17.853Z,65.99
2023-01-04T05:01:47.271Z,65.76
2023-01-04T05:04:19.721Z,65.40
2023-01-04T05:06:49.488Z,65.52
2023-01-04T05:09:19.100Z,65.60
2023-01-04T05:12:07.047Z,65.54
2023-01-04T05:14:38.816Z,65.76
2023-01-04T05:17:08.162Z,65.57
2023-01-04T05:19:37.739Z,65.69
2023-01-04T05:22:06.970Z,65.41
2023-01-04T05:24:36.547Z,65.56
2023-01-04T05:27:07.268Z,65.55
2023-01-04T05:29:54.068Z,65.53
2023-01-04T05:32:23.359Z,65.67
2023-01-04T05:34:52.894Z,65.54
2023-01-04T05:37:22.144Z,65.64
2023-01-04T05:39:51.769Z,65.48
2023-01-04T05:42:28.524Z,65.36
2023-01-04T05:44:58.887Z,65.67
2023-01-04T05:47:28.707Z,65.33
2023-01-04T05:49:58.261Z,65.72
2023-01-04T05:52:27.584Z,65.70
2023-01-04T05:54:57.152Z,65.54
2023-01-04T05:57:27.831Z,65.42
2023-01-04T05:59:57.362Z,65.59
2023-01-04T06:02:27.362Z,65.61
2023-01-04T06:04:59.345Z,65.33
2023-01-04T06:07:28.899Z,65.45
2023-01-04T06:09:58.629Z,65.15
2023-01-04T06:12:29.316Z,65.51
2023-01-04T06:14:58.892Z,65.41
2023-01-04T06:17:28.370Z,65.41
2023-01-04T06:19:57.975Z,65.53
2023-01-04T06:22:27.984Z,65.11
2023-01-04T06:24:57.635Z,65.38
2023-01-04T06:27:28.404Z,65.36
2023-01-04T06:29:58.064Z,65.23
2023-01-04T06:32:27.269Z,65.35
2023-01-04T06:34:56.891Z,65.34
2023-01-04T06:37:26.131Z,65.25
2023-01-04T06:39:55.719Z,65.31
2023-01-04T06:42:42.447Z,65.18
2023-01-04T06:45:13.784Z,65.15
2023-01-04T06:47:43.073Z,65.46
2023-01-04T06:50:12.798Z,65.32
2023-01-04T06:52:42.276Z,65.34
2023-01-04T06:55:11.936Z,65.23
2023-01-04T06:57:41.207Z,65.15
2023-01-04T07:00:11.608Z,65.52
2023-01-04T07:03:12.647Z,65.29
2023-01-04T07:05:32.128Z,65.25
2023-01-04T07:08:07.626Z,65.45
2023-01-04T07:10:38.003Z,65.36
2023-01-04T07:13:07.320Z,65.35
2023-01-04T07:15:40.415Z,65.13
2023-01-04T07:18:11.944Z,65.71
2023-01-04T07:20:41.580Z,65.54
2023-01-04T07:23:11.091Z,65.78
2023-01-04T07:25:40.690Z,65.46
2023-01-04T07:28:10.271Z,65.73
2023-01-04T07:30:39.902Z,65.52
2023-01-04T07:33:09.113Z,65.64
2023-01-04T07:35:40.154Z,65.60
2023-01-04T07:38:09.382Z,65.29
2023-01-04T07:40:55.873Z,65.37
2023-01-04T07:43:28.456Z,65.26
2023-01-04T07:45:58.541Z,65.26
2023-01-04T07:48:29.704Z,65.46
2023-01-04T07:51:00.838Z,65.20
2023-01-04T07:53:30.065Z,65.47
2023-01-04T07:55:59.953Z,65.20
2023-01-04T07:58:32.790Z,65.36
2023-01-04T08:01:07.646Z,65.47
2023-01-04T08:03:36.959Z,65.60
2023-01-04T08:06:08.878Z,65.49
2023-01-04T08:08:38.077Z,65.40
2023-01-04T08:11:08.302Z,65.50
2023-01-04T08:13:37.515Z,65.23
2023-01-04T08:16:07.322Z,65.75
2023-01-04T08:18:36.629Z,65.56
2023-01-04T08:21:08.478Z,65.71
2023-01-04T08:23:37.841Z,65.43
2023-01-04T08:26:08.263Z,65.40
2023-01-04T08:28:37.660Z,65.36
2023-01-04T08:31:08.627Z,65.57
2023-01-04T08:33:38.613Z,65.33
2023-01-04T08:36:10.285Z,65.23
2023-01-04T08:44:18.842Z,65.62
2023-01-04T08:46:48.571Z,65.50
2023-01-04T08:49:18.224Z,65.29
2023-01-04T08:51:49.331Z,65.34
2023-01-04T08:54:18.596Z,65.40
2023-01-04T08:56:48.177Z,65.36
2023-01-04T08:59:17.407Z,65.52
2023-01-04T09:01:47.343Z,65.69
2023-01-04T09:04:16.808Z,65.49
2023-01-04T09:06:46.463Z,65.81
2023-01-04T09:09:17.173Z,65.70
2023-01-04T09:11:46.791Z,65.59
2023-01-04T09:14:16.038Z,65.59
2023-01-04T09:16:45.706Z,65.99
2023-01-04T09:19:21.377Z,65.80
2023-01-04T09:21:51.696Z,65.82
2023-01-04T09:24:22.528Z,65.67
2023-01-04T09:26:52.301Z,65.87
2023-01-04T09:29:21.716Z,65.99
2023-01-04T09:31:51.466Z,65.65
2023-01-04T09:34:20.724Z,65.78
2023-01-04T09:36:50.629Z,65.83
2023-01-04T09:39:23.505Z,66.07
2023-01-04T09:41:57.187Z,65.96
2023-01-04T09:45:03.000Z,65.77
2023-01-04T09:47:22.941Z,66.13
2023-01-04T09:49:52.403Z,66.01
2023-01-04T09:52:22.887Z,66.02
2023-01-04T09:54:56.218Z,65.73
2023-01-04T09:57:30.795Z,66.17
2023-01-04T10:00:01.120Z,65.92
2023-01-04T10:02:31.717Z,65.95
2023-01-04T10:05:01.342Z,65.95
2023-01-04T10:07:32.174Z,66.03
2023-01-04T10:10:01.601Z,65.75
2023-01-04T10:12:35.534Z,66.42
2023-01-04T10:15:07.899Z,66.34
2023-01-04T10:18:57.447Z,66.26
2023-01-04T10:23:40.925Z,66.34
2023-01-04T10:26:12.159Z,66.18
2023-01-04T10:28:46.154Z,65.73
2023-01-04T10:31:40.694Z,66.14
2023-01-04T10:34:06.910Z,66.18
2023-01-04T10:36:36.108Z,65.83
2023-01-04T10:39:06.723Z,65.90
2023-01-04T10:41:36.867Z,65.96
2023-01-04T10:44:11.399Z,65.95
2023-01-04T10:46:45.156Z,65.88
2023-01-04T10:49:17.985Z,66.09
2023-01-04T10:51:48.333Z,66.06
2023-01-04T10:54:20.254Z,65.73
2023-01-04T10:56:51.169Z,65.80
2023-01-04T10:59:23.229Z,65.99
2023-01-04T11:01:53.442Z,65.95
2023-01-04T11:04:24.104Z,66.00
2023-01-04T11:06:55.039Z,65.89
2023-01-04T11:09:25.888Z,66.29
2023-01-04T11:11:55.229Z,65.93
2023-01-04T11:14:29.438Z,65.86
2023-01-04T11:17:02.877Z,65.70
2023-01-04T11:19:32.548Z,66.18
2023-01-04T11:22:02.805Z,66.09
2023-01-04T11:24:33.562Z,65.86
2023-01-04T11:27:05.708Z,65.96
2023-01-04T11:29:38.519Z,66.07
2023-01-04T11:32:13.094Z,65.66
2023-01-04T11:34:46.431Z,66.08
2023-01-04T11:37:26.497Z,66.08
2023-01-04T11:40:10.893Z,65.93
2023-01-04T11:42:40.426Z,66.17
2023-01-04T11:45:12.435Z,66.09
2023-01-04T11:47:46.569Z,65.99
2023-01-04T11:50:25.118Z,66.01
2023-01-04T11:52:54.320Z,66.20
2023-01-04T11:55:27.512Z,66.45
2023-01-04T11:58:06.882Z,66.42
2023-01-04T12:00:38.040Z,66.45
2023-01-04T12:03:13.655Z,66.32
2023-01-04T12:05:43.304Z,66.27
2023-01-04T12:08:13.755Z,65.90
2023-01-04T12:10:43.331Z,65.88
2023-01-04T12:13:12.705Z,66.40
2023-01-04T12:15:46.672Z,66.20
2023-01-04T12:18:17.164Z,66.21
2023-01-04T12:20:46.811Z,66.42
2023-01-04T12:23:16.022Z,66.30
2023-01-04T12:25:46.081Z,66.13
2023-01-04T12:28:29.757Z,66.15
2023-01-04T12:31:16.920Z,66.28
2023-01-04T12:33:50.214Z,66.22
2023-01-04T12:36:19.928Z,66.21
2023-01-04T12:39:03.153Z,66.48
2023-01-04T12:42:01.631Z,66.66
2023-01-04T12:44:52.165Z,66.42
2023-01-04T12:48:02.728Z,66.57
2023-01-04T12:50:37.009Z,66.51
2023-01-04T12:53:28.919Z,66.63
2023-01-04T12:55:59.593Z,66.38
2023-01-04T12:59:15.382Z,66.46
2023-01-04T13:01:31.698Z,66.63
2023-01-04T13:04:05.703Z,66.93
2023-01-04T13:06:37.693Z,66.64
2023-01-04T13:09:10.976Z,66.80
2023-01-04T13:11:58.037Z,67.01
2023-01-04T13:14:29.409Z,66.98
2023-01-04T13:17:04.706Z,66.94
2023-01-04T13:19:34.359Z,66.91
2023-01-04T13:22:05.027Z,66.91
2023-01-04T13:24:35.533Z,67.06
2023-01-04T13:27:07.284Z,67.21
2023-01-04T13:29:37.397Z,67.08
2023-01-04T13:32:07.027Z,67.41
2023-01-04T13:34:37.395Z,67.05
2023-01-04T13:37:14.913Z,67.04
2023-01-04T13:39:44.963Z,67.39
2023-01-04T13:42:22.129Z,67.22
2023-01-04T13:45:20.478Z,67.63
2023-01-04T13:47:51.037Z,67.15
2023-01-04T13:50:28.628Z,67.38
2023-01-04T13:53:06.803Z,67.46
2023-01-04T13:55:37.362Z,68.03
2023-01-04T13:58:07.261Z,67.91
2023-01-04T14:00:42.650Z,67.73
2023-01-04T14:03:27.140Z,67.40
2023-01-04T14:06:02.778Z,67.68
2023-01-04T14:08:36.155Z,68.27
2023-01-04T14:11:06.626Z,67.95
2023-01-04T14:13:35.860Z,67.64
2023-01-04T14:16:06.205Z,68.05
2023-01-04T14:18:35.553Z,67.97
2023-01-04T14:21:05.315Z,68.78
2023-01-04T14:23:38.775Z,68.28
2023-01-04T14:26:08.585Z,68.32
2023-01-04T14:28:48.964Z,68.72
2023-01-04T14:31:32.786Z,69.14
2023-01-04T14:34:05.605Z,68.43
2023-01-04T14:36:36.687Z,68.60
2023-01-04T14:39:27.018Z,68.65
2023-01-04T14:41:59.964Z,68.31
2023-01-04T14:44:33.720Z,68.18
2023-01-04T14:47:06.555Z,68.14
2023-01-04T14:49:35.885Z,68.24
2023-01-04T14:52:09.450Z,69.00
2023-01-04T14:54:39.740Z,68.47
2023-01-04T14:57:11.807Z,69.02
2023-01-04T14:59:41.061Z,68.57
2023-01-04T15:02:11.453Z,68.87
2023-01-04T15:04:40.863Z,69.13
2023-01-04T15:07:25.129Z,68.61
2023-01-04T15:09:54.409Z,68.57
2023-01-04T15:12:25.544Z,68.92
2023-01-04T15:14:54.849Z,69.02
2023-01-04T15:17:24.507Z,69.94
2023-01-04T15:19:53.729Z,70.51
2023-01-04T15:22:23.384Z,69.82
2023-01-04T15:24:52.758Z,69.39
2023-01-04T15:27:25.674Z,70.63
2023-01-04T15:30:01.291Z,69.54
2023-01-04T15:32:30.845Z,69.20
2023-01-04T15:35:00.171Z,69.01
2023-01-04T15:37:29.695Z,69.98
2023-01-04T15:40:02.866Z,70.82
2023-01-04T15:42:50.285Z,70.96
2023-01-04T15:45:23.006Z,72.25
2023-01-04T15:47:52.626Z,70.83
2023-01-04T15:50:22.073Z,72.09
2023-01-04T15:52:51.653Z,72.13
2023-01-04T15:55:20.976Z,72.50
2023-01-04T15:57:50.490Z,72.94
2023-01-04T16:00:21.321Z,71.94
2023-01-04T16:02:50.998Z,71.53
2023-01-04T16:05:21.039Z,72.27
2023-01-04T16:07:50.630Z,70.94
2023-01-04T16:10:20.046Z,70.57
2023-01-04T16:12:56.545Z,71.54
2023-01-04T16:15:27.759Z,71.21
2023-01-04T16:17:57.546Z,72.82
2023-01-04T16:20:26.734Z,72.09
2023-01-04T16:22:56.352Z,71.23
2023-01-04T16:25:25.601Z,72.10
2023-01-04T16:27:55.196Z,71.89
2023-01-04T16:30:29.571Z,72.40
2023-01-04T16:33:01.127Z,71.85
2023-01-04T16:35:30.477Z,72.59
2023-01-04T16:38:00.689Z,72.21
2023-01-04T16:40:29.916Z,72.15
2023-01-04T16:42:59.623Z,72.61
2023-01-04T16:45:28.869Z,72.45
2023-01-04T16:47:58.388Z,72.40
2023-01-04T16:50:29.078Z,71.41
2023-01-04T16:52:58.714Z,73.59
2023-01-04T16:55:27.965Z,74.53
2023-01-04T16:57:57.556Z,74.94
2023-01-04T17:00:26.797Z,74.87
2023-01-04T17:02:56.880Z,73.12
2023-01-04T17:05:26.292Z,75.48
2023-01-04T17:07:57.390Z,74.81
2023-01-04T17:10:29.518Z,74.75
2023-01-04T17:12:59.549Z,74.79
2023-01-04T17:15:44.667Z,75.82
2023-01-04T17:18:15.374Z,74.51
2023-01-04T17:20:44.663Z,74.65
2023-01-04T17:23:15.827Z,75.03
2023-01-04T17:25:45.045Z,75.76
2023-01-04T17:28:17.551Z,74.92
2023-01-04T17:30:49.237Z,75.64
2023-01-04T17:33:18.897Z,74.72
2023-01-04T17:35:48.177Z,76.13
2023-01-04T17:38:19.225Z,75.65
2023-01-04T17:40:48.491Z,75.13
2023-01-04T17:43:18.014Z,76.34
2023-01-04T17:45:47.242Z,75.79
2023-01-04T17:48:18.844Z,77.11
2023-01-04T17:50:48.121Z,76.13
2023-01-04T17:53:19.119Z,76.89
2023-01-04T17:55:48.331Z,74.60
2023-01-04T17:58:23.192Z,74.83
2023-01-04T18:00:52.707Z,74.74
2023-01-04T18:03:22.322Z,75.65
2023-01-04T18:05:59.142Z,74.72
2023-01-04T18:08:30.425Z,74.25
2023-01-04T18:11:08.048Z,74.61
2023-01-04T18:16:29.550Z,76.78
2023-01-04T18:18:59.848Z,77.37
2023-01-04T18:21:30.772Z,76.42
2023-01-04T18:27:20.485Z,75.45
2023-01-04T18:29:42.997Z,77.74
2023-01-04T18:32:12.323Z,76.83
2023-01-04T18:34:41.944Z,77.74
2023-01-04T18:37:11.197Z,76.56
2023-01-04T18:39:42.257Z,77.74
2023-01-04T18:42:11.498Z,76.89
2023-01-04T18:44:47.353Z,78.25
2023-01-04T18:47:18.140Z,78.06
2023-01-04T18:49:47.711Z,79.26
2023-01-04T18:52:17.028Z,79.67
2023-01-04T18:54:48.727Z,79.38
2023-01-04T18:57:18.066Z,80.04
2023-01-04T18:59:50.279Z,78.97
2023-01-04T19:02:20.594Z,79.13
2023-01-04T19:04:50.631Z,79.04
2023-01-04T19:07:19.911Z,79.51
2023-01-04T19:09:50.918Z,79.89
2023-01-04T19:12:20.299Z,80.37
2023-01-04T19:14:49.991Z,80.76
2023-01-04T19:17:21.740Z,81.65
2023-01-04T19:19:51.298Z,80.24
2023-01-04T19:22:20.514Z,79.73
2023-01-04T19:24:51.543Z,78.33
2023-01-04T19:27:21.126Z,80.17
2023-01-04T19:29:51.132Z,79.97
2023-01-04T19:32:21.323Z,81.38
2023-01-04T19:34:50.937Z,81.88
2023-01-04T19:37:20.187Z,80.31
2023-01-04T19:39:49.792Z,80.54
2023-01-04T19:42:20.529Z,81.61
2023-01-04T19:44:50.040Z,81.48
2023-01-04T19:47:19.255Z,81.97
2023-01-04T19:49:49.241Z,82.16
2023-01-04T19:52:18.430Z,81.87
2023-01-04T19:54:48.079Z,82.29
2023-01-04T19:57:17.306Z,81.45
2023-01-04T19:59:48.400Z,81.21
2023-01-04T20:02:17.899Z,81.37
2023-01-04T20:04:47.650Z,82.57
2023-01-04T20:07:16.937Z,81.05
2023-01-04T20:09:48.741Z,81.85
2023-01-04T20:12:17.912Z,80.18
2023-01-04T20:14:49.060Z,81.02
2023-01-04T20:17:18.235Z,81.64
2023-01-04T20:19:47.924Z,82.10
2023-01-04T20:22:17.108Z,81.33
2023-01-04T20:24:46.740Z,79.70
2023-01-04T20:27:15.973Z,80.10
2023-01-04T20:29:45.514Z,81.23
2023-01-04T20:32:16.231Z,80.87
2023-01-04T20:34:45.892Z,81.10
2023-01-04T20:37:15.191Z,80.82
2023-01-04T20:39:44.853Z,80.37
2023-01-04T20:42:31.451Z,81.13
2023-01-04T20:45:01.005Z,81.28
2023-01-04T20:47:32.461Z,81.84
2023-01-04T20:50:02.065Z,81.70
2023-01-04T20:52:31.297Z,83.03
2023-01-04T20:55:01.087Z,82.83
2023-01-04T20:57:30.281Z,83.14
2023-01-04T20:59:59.923Z,82.64
2023-01-04T21:02:32.048Z,83.22
2023-01-04T21:05:07.659Z,83.54
2023-01-04T21:07:37.048Z,84.15
2023-01-04T21:10:06.892Z,82.75
2023-01-04T21:12:37.733Z,82.80
2023-01-04T21:15:07.993Z,81.81
2023-01-04T21:17:37.176Z,81.88
2023-01-04T21:20:08.958Z,81.86
2023-01-04T21:22:38.177Z,82.74
2023-01-04T21:25:08.010Z,82.51
2023-01-04T21:27:37.312Z,82.81
2023-01-04T21:30:07.407Z,82.28
2023-01-04T21:32:36.611Z,83.21
2023-01-04T21:35:08.440Z,81.54
2023-01-04T21:37:37.681Z,81.90
2023-01-04T21:40:07.841Z,82.54
2023-01-04T21:42:37.072Z,83.30
2023-01-04T21:45:07.039Z,82.49
2023-01-04T21:47:36.260Z,83.11
2023-01-04T21:50:06.153Z,83.38
2023-01-04T21:52:36.889Z,83.55
2023-01-04T21:55:06.943Z,83.34
2023-01-04T21:57:36.303Z,83.22
2023-01-04T22:00:06.935Z,83.65
2023-01-04T22:02:36.350Z,84.24
2023-01-04T22:05:06.372Z,83.03
2023-01-04T22:07:37.121Z,82.74
2023-01-04T22:10:07.308Z,83.66
2023-01-04T22:12:36.653Z,83.89
2023-01-04T22:15:06.720Z,83.81
2023-01-04T22:17:36.083Z,84.43
2023-01-04T22:20:06.139Z,84.56
2023-01-04T22:22:36.875Z,83.98
2023-01-04T22:25:06.972Z,83.67
2023-01-04T22:27:36.310Z,84.17
2023-01-04T22:30:06.292Z,84.19
2023-01-04T22:32:35.512Z,84.59
2023-01-04T22:35:05.509Z,84.60
2023-01-04T22:37:34.798Z,83.68
2023-01-04T22:40:06.231Z,83.72
2023-01-04T22:42:35.472Z,84.09
2023-01-04T22:45:11.001Z,83.64
2023-01-04T22:47:42.365Z,83.66
2023-01-04T22:50:12.296Z,83.26
2023-01-04T22:52:45.820Z,82.08
2023-01-04T22:55:20.166Z,82.74
2023-01-04T22:57:49.414Z,82.74
2023-01-04T23:00:19.315Z,82.27
2023-01-04T23:02:48.671Z,83.24
2023-01-04T23:05:18.384Z,83.10
2023-01-04T23:07:47.591Z,83.08
2023-01-04T23:10:17.168Z,82.95
2023-01-04T23:12:47.923Z,83.22
2023-01-04T23:15:17.639Z,83.56
2023-01-04T23:17:46.962Z,83.52
2023-01-04T23:20:20.469Z,83.65
2023-01-04T23:22:49.869Z,82.71
2023-01-04T23:25:19.391Z,83.80
2023-01-04T23:27:50.213Z,83.38
2023-01-04T23:30:19.812Z,82.91
2023-01-04T23:32:49.097Z,83.12
2023-01-04T23:35:18.732Z,83.22
2023-01-04T23:37:47.909Z,83.36
2023-01-04T23:40:17.529Z,83.49
2023-01-04T23:42:46.787Z,83.52
2023-01-04T23:45:17.908Z,82.10
2023-01-04T23:47:49.295Z,81.69
2023-01-04T23:50:18.934Z,82.92
2023-01-04T23:52:48.121Z,84.23
2023-01-04T23:55:17.792Z,83.95
2023-01-04T23:57:47.094Z,81.96
